• Join FlightAware (Why Join?)
  • Login
  • US Flag 
05:42PM EDT


 

Airport Tracker/Info


-or-


 

Live Flight TrackerFlight Track Log ✈ SLI2424 ✈ 09-May-2012 ✈ MMMX / MEX - MMMA / MAM

Flight Track Log - Related Links

Times and Time Zones

All times are in EDT time to prevent confusion due to time zone crossing. See the SLI2424 flight status page for this flight to view local times or setup timezone preferences in your user account.

Time Position Orientation Groundspeed Altitude Reporting Facility
EDT Latitude Longitude Course Direction KTS MPH feet Rate Location/Type
09:54PM 20.8535 -98.7382 13° North  Level Estimated
09:55PM 20.9510 -98.7150 13° North  Level Estimated
09:56PM 21.0485 -98.6918 13° North  Level Estimated
09:57PM 21.1460 -98.6685 13° North  Level Estimated
09:58PM 21.2434 -98.6452 13° North  Level Estimated
09:59PM 21.3409 -98.6219 13° North  Level Estimated
10:00PM 21.4384 -98.5986 13° North  Level Estimated
10:01PM 21.5359 -98.5752 13° North  Level Estimated
10:02PM 21.6333 -98.5518 13° North  Level Estimated
10:03PM 21.7308 -98.5283 13° North  Level Estimated
10:04PM 21.8282 -98.5048 13° North  Level Estimated
10:05PM 21.9257 -98.4813 13° North  Level Estimated
10:06PM 22.0231 -98.4578 13° North  Level Estimated
10:07PM 22.1206 -98.4342 13° North  Level Estimated
10:08PM 22.2181 -98.4106 13° North  Level Estimated
10:09PM 22.3155 -98.3869 13° North  Level Estimated
10:10PM 22.4129 -98.3633 13° North  Level Estimated
10:11PM 22.5104 -98.3396 13° North  Level Estimated
10:12PM 22.6078 -98.3158 13° North  Level Estimated
10:13PM 22.7052 -98.2921 13° North  Level Estimated
10:14PM 22.8027 -98.2682 13° North  Level Estimated
10:15PM 22.9001 -98.2444 13° North  Level Estimated
10:16PM 22.9975 -98.2205 13° North  Level Estimated
10:17PM 23.0949 -98.1966 13° North  Level Estimated
10:18PM 23.1923 -98.1727 13° North  Level Estimated
10:19PM 23.2897 -98.1487 13° North  Level Estimated
10:20PM 23.3871 -98.1247 13° North  Level Estimated
10:21PM 23.4845 -98.1006 13° North  Level Estimated
10:22PM 23.5819 -98.0765 13° North  Level Estimated
10:23PM 23.6793 -98.0524 13° North  Level Estimated
10:24PM 23.7767 -98.0283 13° North  Level Estimated
10:25PM 23.8741 -98.0041 13° North  Level Estimated
10:26PM 23.9715 -97.9798 13° North  Level Estimated
10:27PM 24.0689 -97.9556 13° North  Level Estimated
10:28PM 24.1662 -97.9313 13° North  Level Estimated
10:29PM 24.2636 -97.9069 13° North  Level Estimated
10:30PM 24.3610 -97.8825 13° North  Level Estimated
10:31PM 24.4583 -97.8581 13° North  Level Estimated
10:32PM 24.5557 -97.8336 13° North  Level Estimated
10:33PM 24.6530 -97.8092 13° North  Level Estimated
10:34PM 24.7504 -97.7846 13° North  Level Estimated
10:35PM 24.8477 -97.7601 13° North  Level Estimated
10:36PM 24.9451 -97.7355 13° North  Level Estimated
10:37PM 25.0424 -97.7108 13° North  Level Estimated
10:38PM 25.1398 -97.6861 13° North  Level Estimated
10:39PM 25.2371 -97.6614 13° North  Level Estimated
10:40PM 25.3344 -97.6366 13° North  Level Estimated
10:41PM 25.4317 -97.6118 13° North  Level Estimated
10:42PM 25.5291 -97.5870 13° North  Level Estimated
10:43PM 25.6264 -97.5621 13° North  Level Estimated
10:44PM 25.7237 -97.5372 13° North  Level Estimated
10:45PM 25.8210 -97.5122 193° South  Level Estimated
10:46PM 25.7237 -97.5372 13° North  Level Estimated
10:47PM 25.8210 -97.5122 193° South  Level Estimated
10:48PM 25.7237 -97.5372 13° North  Level Estimated
10:49PM 25.8210 -97.5122 193° South  Level Estimated
10:50PM 25.7237 -97.5372 13° North  Level Estimated
10:51PM 25.8210 -97.5122 193° South  Level Estimated
10:52PM 25.7237 -97.5372 13° North  Level Estimated
10:53PM 25.8210 -97.5122 193° South  Level Estimated
10:54PM 25.7237 -97.5372 13° North  Level Estimated
10:55PM 25.8210 -97.5122 193° South  Level Estimated
10:56PM 25.7237 -97.5372 13° North  Level Estimated
10:57PM 25.8210 -97.5122 193° South  Level Estimated
10:58PM 25.7237 -97.5372 13° North  Level Estimated
10:59PM 25.8210 -97.5122 193° South  Level Estimated
11:00PM 25.7237 -97.5372 193° South  Level Estimated